Time;durP1;ratioP1;P1;durP2;ratioP2;P2;SDS_P1;SDS_P2;PMS_P1;PMS_P2;Temp;Humidity;BMP_temperature;BMP_pressure;BME280_temperature;BME280_humidity;BME280_pressure;Samples;Min_cycle;Max_cycle;Signal;HPM_P1;HPM_P2
2022/04/12 00:00:13;;;;;;;6.20;6.00;;;23.40;41.70;;;;;;5084284;22;20491;-51
2022/04/12 00:02:40;;;;;;;6.10;6.00;;;23.50;41.70;;;;;;5079183;28;20458;-50
2022/04/12 00:05:07;;;;;;;6.43;6.33;;;23.50;41.70;;;;;;5071449;28;20810;-50
2022/04/12 00:07:34;;;;;;;6.30;6.20;;;23.50;41.70;;;;;;5070922;28;20475;-48
2022/04/12 00:10:02;;;;;;;6.20;6.10;;;23.40;41.70;;;;;;5064298;28;20982;-48
2022/04/12 00:12:29;;;;;;;6.10;6.00;;;23.40;41.70;;;;;;5051201;28;20441;-50
2022/04/12 00:14:56;;;;;;;6.30;6.13;;;23.40;41.70;;;;;;5051189;28;20440;-49
2022/04/12 00:20:08;;;;;;;6.20;6.10;;;23.40;41.80;;;;;;5051003;28;20506;-50
2022/04/12 00:22:35;;;;;;;6.70;6.60;;;23.40;41.80;;;;;;5050788;28;20451;-50
2022/04/12 00:25:04;;;;;;;6.37;6.27;;;23.40;41.80;;;;;;5050643;28;20858;-50
2022/04/12 00:27:31;;;;;;;6.07;5.97;;;23.40;41.90;;;;;;5051024;28;20480;-50
2022/04/12 00:29:58;;;;;;;5.93;5.83;;;23.30;41.80;;;;;;5050874;28;20475;-50
2022/04/12 00:32:25;;;;;;;5.70;5.60;;;23.30;41.90;;;;;;5050968;28;20455;-50
2022/04/12 00:34:51;;;;;;;6.30;6.20;;;23.30;41.90;;;;;;5051084;28;20788;-49
2022/04/12 00:37:18;;;;;;;6.20;6.10;;;23.30;42.00;;;;;;5051122;28;20796;-51
2022/04/12 00:39:45;;;;;;;6.80;6.70;;;23.20;41.90;;;;;;5050633;28;20460;-48
2022/04/12 00:42:13;;;;;;;6.17;6.07;;;23.30;42.00;;;;;;5051112;28;20448;-50
2022/04/12 00:44:40;;;;;;;6.40;6.30;;;23.30;42.00;;;;;;5053835;28;20456;-49
2022/04/12 00:47:06;;;;;;;6.10;6.00;;;23.30;41.90;;;;;;5054805;28;20484;-50
2022/04/12 00:49:33;;;;;;;6.30;6.20;;;23.30;41.80;;;;;;5054733;28;21391;-50
2022/04/12 00:52:00;;;;;;;6.40;6.30;;;23.30;41.80;;;;;;5054834;28;20450;-49
2022/04/12 00:54:28;;;;;;;6.63;6.53;;;23.30;41.80;;;;;;5054749;28;20454;-50
2022/04/12 00:56:55;;;;;;;6.30;6.20;;;23.30;41.80;;;;;;5054847;28;20447;-53
2022/04/12 00:59:24;;;;;;;6.23;6.13;;;23.30;41.80;;;;;;5054342;28;20452;-50
2022/04/12 01:01:51;;;;;;;6.70;6.50;;;23.30;41.80;;;;;;5054444;28;20455;-49
2022/04/12 01:04:18;;;;;;;6.93;6.83;;;23.30;41.80;;;;;;5054586;28;20452;-52
2022/04/12 01:06:45;;;;;;;6.60;6.50;;;23.30;41.90;;;;;;5054596;28;20488;-50
2022/04/12 01:09:12;;;;;;;6.47;6.37;;;23.30;41.90;;;;;;5054577;28;20444;-50
2022/04/12 01:11:39;;;;;;;7.70;7.40;;;23.30;41.90;;;;;;5054449;28;20448;-49
2022/04/12 01:14:06;;;;;;;6.43;6.33;;;23.20;41.90;;;;;;5054521;28;20531;-50
2022/04/12 01:16:35;;;;;;;6.40;6.30;;;23.20;41.90;;;;;;5054140;28;20452;-50
2022/04/12 01:19:01;;;;;;;6.40;6.30;;;23.20;41.90;;;;;;5054401;28;20448;-49
2022/04/12 01:21:32;;;;;;;6.30;6.20;;;23.20;41.90;;;;;;5054172;28;20468;-50
2022/04/12 01:24:04;;;;;;;6.10;6.00;;;23.30;42.00;;;;;;5053989;28;20451;-50
2022/04/12 01:26:31;;;;;;;7.00;6.90;;;23.30;41.90;;;;;;5054248;28;20444;-48
2022/04/12 01:28:58;;;;;;;6.93;6.73;;;23.30;41.90;;;;;;5054172;28;20472;-50
2022/04/12 01:31:25;;;;;;;6.57;6.47;;;23.30;41.80;;;;;;5054309;28;20464;-50
2022/04/12 01:33:52;;;;;;;6.73;6.63;;;23.30;41.80;;;;;;5054217;28;20825;-50
2022/04/12 01:36:19;;;;;;;5.80;5.70;;;23.30;41.80;;;;;;5053971;28;20448;-54
2022/04/12 01:38:46;;;;;;;6.50;6.40;;;23.30;41.70;;;;;;5053779;28;20444;-49
2022/04/12 01:41:14;;;;;;;6.37;6.27;;;23.40;41.80;;;;;;5053867;28;20460;-50
2022/04/12 01:43:41;;;;;;;6.20;6.10;;;23.40;41.80;;;;;;5053963;28;20806;-50
2022/04/12 01:46:08;;;;;;;6.03;5.93;;;23.40;41.80;;;;;;5053973;28;20475;-50
2022/04/12 01:48:35;;;;;;;6.00;5.90;;;23.40;41.80;;;;;;5053739;28;21013;-50
2022/04/12 01:51:02;;;;;;;5.83;5.73;;;23.30;41.70;;;;;;5053847;28;20469;-50
2022/04/12 01:53:28;;;;;;;6.70;6.60;;;23.30;41.80;;;;;;5053641;28;20969;-51
2022/04/12 01:55:55;;;;;;;6.83;6.63;;;23.30;41.80;;;;;;5053189;28;20451;-49
2022/04/12 01:58:23;;;;;;;6.40;6.20;;;23.30;41.90;;;;;;5053514;28;20445;-49
2022/04/12 02:00:50;;;;;;;6.63;6.53;;;23.30;42.00;;;;;;5053797;28;20483;-50
2022/04/12 02:03:17;;;;;;;5.93;5.83;;;23.30;42.00;;;;;;5053174;28;20985;-50
2022/04/12 02:05:43;;;;;;;6.83;6.70;;;23.30;42.10;;;;;;5053199;28;20448;-50
2022/04/12 02:08:10;;;;;;;6.30;6.20;;;23.20;42.00;;;;;;5053337;28;20480;-51
2022/04/12 02:10:37;;;;;;;6.30;6.20;;;23.30;42.10;;;;;;5053261;28;20997;-50
2022/04/12 02:13:04;;;;;;;6.33;6.23;;;23.30;42.10;;;;;;5053274;28;20445;-49
2022/04/12 02:15:33;;;;;;;6.50;6.40;;;23.30;42.00;;;;;;5053086;28;20447;-50
2022/04/12 02:18:00;;;;;;;6.20;6.10;;;23.30;42.00;;;;;;5053412;28;20452;-50
2022/04/12 02:20:27;;;;;;;6.00;5.90;;;23.30;42.00;;;;;;5053383;28;20471;-49
2022/04/12 02:22:54;;;;;;;6.37;6.23;;;23.30;42.00;;;;;;5053158;28;20452;-50
2022/04/12 02:25:21;;;;;;;6.33;6.23;;;23.30;41.90;;;;;;5053239;28;20448;-50
2022/04/12 02:27:48;;;;;;;6.13;6.03;;;23.30;41.90;;;;;;5052749;28;20512;-53
2022/04/12 02:30:15;;;;;;;6.10;6.00;;;23.30;41.90;;;;;;5053047;28;20476;-50
2022/04/12 02:32:43;;;;;;;6.67;6.57;;;23.30;41.90;;;;;;5052865;28;20552;-52
2022/04/12 02:35:10;;;;;;;6.10;6.00;;;23.30;41.90;;;;;;5053088;28;20444;-50
2022/04/12 02:37:37;;;;;;;6.50;6.30;;;23.30;41.90;;;;;;5052642;28;20947;-50
2022/04/12 02:40:04;;;;;;;6.20;6.10;;;23.30;42.00;;;;;;5052874;28;20460;-52
2022/04/12 02:42:31;;;;;;;6.53;6.43;;;23.30;42.00;;;;;;5052715;28;20445;-50
2022/04/12 02:44:58;;;;;;;6.30;6.20;;;23.30;42.00;;;;;;5052781;28;20448;-50
2022/04/12 02:47:28;;;;;;;6.93;6.73;;;23.30;42.00;;;;;;5052369;28;20484;-49
2022/04/12 02:49:56;;;;;;;6.20;6.10;;;23.20;42.00;;;;;;5052228;28;20599;-50
2022/04/12 02:52:23;;;;;;;6.40;6.30;;;23.20;42.00;;;;;;5052950;28;20440;-50
2022/04/12 02:54:49;;;;;;;5.70;5.60;;;23.20;42.00;;;;;;5052577;28;20448;-49
2022/04/12 02:57:16;;;;;;;6.67;6.57;;;23.20;42.00;;;;;;5052192;28;20456;-53
2022/04/12 02:59:43;;;;;;;6.20;6.10;;;23.20;42.00;;;;;;5052214;28;20472;-50
2022/04/12 03:02:09;;;;;;;6.10;6.00;;;23.20;41.90;;;;;;5052394;28;20456;-49
2022/04/12 03:04:36;;;;;;;6.23;6.13;;;23.30;42.00;;;;;;5052387;28;20445;-50
2022/04/12 03:07:05;;;;;;;6.60;6.50;;;23.30;41.90;;;;;;5051574;28;20444;-49
2022/04/12 03:09:32;;;;;;;6.40;6.30;;;23.30;41.90;;;;;;5052074;28;20483;-49
2022/04/12 03:11:59;;;;;;;6.50;6.30;;;23.30;41.90;;;;;;5051956;28;20527;-52
2022/04/12 03:14:25;;;;;;;6.40;6.30;;;23.30;41.90;;;;;;5052330;28;20452;-50
2022/04/12 03:16:52;;;;;;;6.00;5.90;;;23.30;41.90;;;;;;5051816;28;20928;-49
2022/04/12 03:19:20;;;;;;;6.30;6.20;;;23.30;41.90;;;;;;5052099;28;20452;-50
2022/04/12 03:21:46;;;;;;;6.13;6.03;;;23.30;41.90;;;;;;5052313;28;20463;-51
2022/04/12 03:24:14;;;;;;;6.43;6.23;;;23.30;41.90;;;;;;5051995;28;20451;-50
2022/04/12 03:26:41;;;;;;;6.50;6.40;;;23.30;42.00;;;;;;5051877;28;20928;-49
2022/04/12 03:29:08;;;;;;;6.00;5.90;;;23.30;42.00;;;;;;5051906;28;20476;-49
2022/04/12 03:31:35;;;;;;;6.33;6.23;;;23.20;41.90;;;;;;5051800;28;20591;-50
2022/04/12 03:34:02;;;;;;;6.20;6.10;;;23.20;41.90;;;;;;5051842;28;20455;-49
2022/04/12 03:36:29;;;;;;;6.27;6.17;;;23.20;42.00;;;;;;5051830;28;20444;-49
2022/04/12 03:38:55;;;;;;;6.90;6.77;;;23.20;42.00;;;;;;5051449;28;20440;-50
2022/04/12 03:41:23;;;;;;;6.47;6.37;;;23.20;42.00;;;;;;5051832;28;20548;-49
2022/04/12 03:43:51;;;;;;;6.20;6.10;;;23.20;42.00;;;;;;5051639;28;20444;-49
2022/04/12 03:46:18;;;;;;;7.50;7.30;;;23.20;42.00;;;;;;5051630;28;20448;-52
2022/04/12 03:48:45;;;;;;;6.30;6.20;;;23.20;41.90;;;;;;5051296;28;20475;-50
2022/04/12 03:51:13;;;;;;;6.50;6.40;;;23.20;41.90;;;;;;5051713;28;20475;-51
2022/04/12 03:53:40;;;;;;;6.27;6.17;;;23.30;41.90;;;;;;5051405;28;20455;-50
2022/04/12 03:56:08;;;;;;;6.20;6.10;;;23.30;41.90;;;;;;5051527;28;20451;-49
2022/04/12 03:58:37;;;;;;;6.70;6.60;;;23.30;41.90;;;;;;5051026;28;20444;-49
2022/04/12 04:01:05;;;;;;;6.93;6.60;;;23.30;41.90;;;;;;5051205;28;20476;-50
2022/04/12 04:03:32;;;;;;;6.87;6.57;;;23.30;41.90;;;;;;5051273;28;20450;-49
2022/04/12 04:05:59;;;;;;;6.50;6.40;;;23.30;41.90;;;;;;5050954;28;20452;-50
2022/04/12 04:08:26;;;;;;;7.00;6.80;;;23.30;41.80;;;;;;5051093;28;20472;-49
2022/04/12 04:10:52;;;;;;;6.53;6.43;;;23.40;41.80;;;;;;5051123;28;20472;-50
2022/04/12 04:13:19;;;;;;;6.60;6.50;;;23.40;41.70;;;;;;5050963;28;20456;-49
2022/04/12 04:15:47;;;;;;;6.60;6.50;;;23.50;41.70;;;;;;5051069;28;20748;-49
2022/04/12 04:18:14;;;;;;;6.40;6.30;;;23.50;41.60;;;;;;5050412;28;20575;-50
2022/04/12 04:20:42;;;;;;;6.50;6.40;;;23.50;41.60;;;;;;5051199;28;20498;-50
2022/04/12 04:23:09;;;;;;;6.60;6.50;;;23.60;41.60;;;;;;5051196;28;20448;-50
2022/04/12 04:25:36;;;;;;;7.00;6.90;;;23.60;41.60;;;;;;5050807;28;20807;-49
2022/04/12 04:28:05;;;;;;;6.63;6.53;;;23.60;41.50;;;;;;5050935;28;20473;-50
2022/04/12 04:30:33;;;;;;;6.70;6.60;;;23.60;41.50;;;;;;5050892;28;21037;-50
2022/04/12 04:33:01;;;;;;;7.13;6.93;;;23.60;41.40;;;;;;5050827;28;20452;-50
2022/04/12 04:35:28;;;;;;;7.07;6.87;;;23.60;41.40;;;;;;5050623;28;20456;-51
2022/04/12 04:37:55;;;;;;;6.17;6.07;;;23.60;41.40;;;;;;5033078;28;20451;-56
2022/04/12 04:40:23;;;;;;;6.70;6.50;;;23.60;41.40;;;;;;5050884;28;20507;-51
2022/04/12 04:42:52;;;;;;;7.03;6.93;;;23.60;41.50;;;;;;5050854;28;20452;-53
2022/04/12 04:45:19;;;;;;;7.20;7.10;;;23.60;41.50;;;;;;5051107;28;20476;-53
2022/04/12 04:47:51;;;;;;;6.77;6.67;;;23.60;41.50;;;;;;5050696;28;20455;-50
2022/04/12 04:50:20;;;;;;;6.70;6.50;;;23.50;41.70;;;;;;5050857;28;20479;-49
2022/04/12 04:52:48;;;;;;;6.60;6.50;;;23.50;41.80;;;;;;5050804;28;20886;-51
2022/04/12 04:55:15;;;;;;;6.37;6.27;;;23.50;41.90;;;;;;5051094;28;20448;-50
2022/04/12 04:57:42;;;;;;;6.20;6.10;;;23.40;41.90;;;;;;5050476;28;20444;-50
2022/04/12 05:00:15;;;;;;;6.90;6.77;;;23.40;42.00;;;;;;5050699;28;20479;-50
2022/04/12 05:02:42;;;;;;;6.20;6.10;;;23.40;42.10;;;;;;5050991;28;20453;-52
2022/04/12 05:05:10;;;;;;;7.77;7.57;;;23.40;42.10;;;;;;5050785;28;20451;-50
2022/04/12 05:07:38;;;;;;;9.03;8.83;;;23.30;42.10;;;;;;5050661;28;20468;-50
2022/04/12 05:10:06;;;;;;;8.17;7.87;;;23.30;42.20;;;;;;5050331;28;20487;-49
2022/04/12 05:12:32;;;;;;;8.93;8.53;;;23.30;42.10;;;;;;5050814;28;20944;-47
2022/04/12 05:14:59;;;;;;;7.93;7.73;;;23.30;42.20;;;;;;5050693;28;20455;-50
2022/04/12 05:17:26;;;;;;;8.50;8.00;;;23.30;42.60;;;;;;5050473;28;20461;-49
2022/04/12 05:19:53;;;;;;;9.80;9.10;;;23.30;43.10;;;;;;5050346;28;20457;-50
2022/04/12 05:22:20;;;;;;;8.37;7.77;;;23.30;43.40;;;;;;5051066;28;20443;-50
2022/04/12 05:24:48;;;;;;;8.23;7.80;;;23.30;43.90;;;;;;5050294;28;20449;-50
2022/04/12 05:27:15;;;;;;;9.67;8.90;;;23.30;44.20;;;;;;5050557;28;20957;-51
2022/04/12 05:29:43;;;;;;;11.20;9.40;;;23.30;47.20;;;;;;5050821;28;20487;-50
2022/04/12 05:32:12;;;;;;;9.43;8.70;;;23.30;47.90;;;;;;5053827;28;20463;-53
2022/04/12 05:34:40;;;;;;;9.53;9.13;;;23.30;47.90;;;;;;5054252;28;20480;-51
2022/04/12 05:37:07;;;;;;;9.83;9.23;;;23.40;47.60;;;;;;5053943;28;20445;-52
2022/04/12 05:39:34;;;;;;;9.07;8.57;;;23.50;47.00;;;;;;5054012;28;20460;-54
2022/04/12 05:42:02;;;;;;;8.07;7.57;;;23.50;46.10;;;;;;5054009;28;20456;-51
2022/04/12 05:44:32;;;;;;;10.13;8.70;;;23.60;45.30;;;;;;5054236;28;20456;-51
2022/04/12 05:46:59;;;;;;;8.10;7.63;;;23.70;44.90;;;;;;5053988;28;20444;-52
2022/04/12 05:49:26;;;;;;;8.30;7.80;;;23.80;44.60;;;;;;5053848;28;20523;-53
2022/04/12 05:51:52;;;;;;;8.90;8.30;;;23.90;44.30;;;;;;5053863;28;20452;-52
2022/04/12 05:54:19;;;;;;;8.50;8.00;;;23.90;44.00;;;;;;5053787;28;20821;-50
2022/04/12 05:56:46;;;;;;;9.07;8.57;;;24.00;43.80;;;;;;5053876;28;20439;-48
2022/04/12 05:59:14;;;;;;;9.33;8.60;;;24.00;43.50;;;;;;5053963;28;20440;-50
2022/04/12 06:01:41;;;;;;;8.67;8.20;;;24.10;43.40;;;;;;5054259;28;20440;-50
2022/04/12 06:04:08;;;;;;;9.37;8.77;;;24.10;43.20;;;;;;5053860;28;20459;-49
2022/04/12 06:06:36;;;;;;;9.33;8.57;;;24.10;43.00;;;;;;5053393;28;20440;-49
2022/04/12 06:09:04;;;;;;;9.13;8.20;;;24.10;42.90;;;;;;5053485;28;20847;-49
2022/04/12 06:11:31;;;;;;;8.80;7.83;;;24.10;42.80;;;;;;5053593;28;20559;-49
2022/04/12 06:13:58;;;;;;;8.37;7.87;;;24.10;42.70;;;;;;5053828;28;20440;-50
2022/04/12 06:16:26;;;;;;;8.90;8.30;;;24.10;42.50;;;;;;5053131;28;20478;-48
2022/04/12 06:18:53;;;;;;;8.23;7.93;;;24.10;42.50;;;;;;5053600;28;20811;-49
2022/04/12 06:21:20;;;;;;;8.27;7.77;;;24.10;42.50;;;;;;5053359;28;20469;-50
2022/04/12 06:23:47;;;;;;;7.83;7.43;;;24.10;42.40;;;;;;5053382;28;20450;-49
2022/04/12 06:26:14;;;;;;;8.37;8.00;;;24.10;42.40;;;;;;5053187;28;20444;-50
2022/04/12 06:28:40;;;;;;;9.20;8.50;;;24.10;42.30;;;;;;5053282;28;20480;-53
2022/04/12 06:31:07;;;;;;;8.87;8.40;;;24.00;42.30;;;;;;5053273;28;20464;-53
2022/04/12 06:33:35;;;;;;;8.73;8.13;;;24.00;42.30;;;;;;5053286;28;20447;-55
2022/04/12 06:36:02;;;;;;;8.37;7.97;;;24.00;42.30;;;;;;5053082;28;20449;-54
2022/04/12 06:38:29;;;;;;;9.00;8.60;;;23.90;42.20;;;;;;5053044;28;20448;-53
2022/04/12 06:40:56;;;;;;;8.83;8.33;;;23.90;42.20;;;;;;5051818;28;20509;-51
2022/04/12 06:43:22;;;;;;;8.70;8.20;;;23.90;42.20;;;;;;5052991;28;20444;-52
2022/04/12 06:45:49;;;;;;;8.60;7.93;;;23.90;42.30;;;;;;5052712;28;20444;-55
2022/04/12 06:48:16;;;;;;;7.20;7.00;;;23.90;42.30;;;;;;5052838;28;20464;-54
2022/04/12 06:50:44;;;;;;;7.47;7.27;;;23.80;42.20;;;;;;5052705;28;20491;-55
2022/04/12 06:53:10;;;;;;;8.07;7.67;;;23.80;42.30;;;;;;5052766;28;20819;-51
2022/04/12 06:55:38;;;;;;;7.90;7.60;;;23.80;42.30;;;;;;5052680;28;20441;-50
2022/04/12 06:58:05;;;;;;;7.97;7.40;;;23.70;42.20;;;;;;5052577;28;20447;-50
2022/04/12 07:00:32;;;;;;;8.33;7.90;;;23.70;42.30;;;;;;5052507;28;20476;-54
2022/04/12 07:02:58;;;;;;;7.30;7.00;;;23.70;42.30;;;;;;5052490;28;20807;-54
2022/04/12 07:05:25;;;;;;;8.20;7.90;;;23.70;42.30;;;;;;5052440;28;20440;-53
2022/04/12 07:07:54;;;;;;;8.73;8.30;;;23.60;42.30;;;;;;5052401;28;20446;-51
2022/04/12 07:10:21;;;;;;;8.10;7.70;;;23.60;42.30;;;;;;5052475;28;20571;-51
2022/04/12 07:12:53;;;;;;;8.73;8.30;;;23.60;42.40;;;;;;5052406;28;20444;-49
2022/04/12 07:15:20;;;;;;;8.60;8.10;;;23.60;42.40;;;;;;5052460;28;20479;-55
2022/04/12 07:17:47;;;;;;;7.60;7.30;;;23.60;42.40;;;;;;5052292;28;20915;-51
2022/04/12 07:20:14;;;;;;;8.00;7.70;;;23.50;42.30;;;;;;5052144;28;20471;-52
2022/04/12 07:22:40;;;;;;;8.50;8.10;;;23.50;42.30;;;;;;5052491;28;20448;-52
2022/04/12 07:25:10;;;;;;;8.33;7.90;;;23.50;42.40;;;;;;5052250;28;20448;-50
2022/04/12 07:27:37;;;;;;;8.30;7.80;;;23.40;42.30;;;;;;5051970;28;20585;-50
2022/04/12 07:30:05;;;;;;;8.40;7.80;;;23.40;42.30;;;;;;5051959;28;20496;-51
2022/04/12 07:32:32;;;;;;;7.47;7.20;;;23.40;42.40;;;;;;5052216;28;20452;-52
2022/04/12 07:34:59;;;;;;;8.27;7.80;;;23.40;42.40;;;;;;5052061;28;20799;-50
2022/04/12 07:37:25;;;;;;;8.20;7.90;;;23.50;42.30;;;;;;5051702;28;20447;-52
2022/04/12 07:39:55;;;;;;;8.07;7.67;;;23.50;42.10;;;;;;5051859;28;20480;-49
2022/04/12 07:42:24;;;;;;;7.90;7.70;;;23.70;42.10;;;;;;5052075;28;20508;-52
2022/04/12 07:44:50;;;;;;;7.93;7.73;;;23.70;41.90;;;;;;5051871;28;20457;-54
2022/04/12 07:47:17;;;;;;;7.70;7.50;;;23.80;41.70;;;;;;5051413;28;20819;-50
2022/04/12 07:49:44;;;;;;;8.63;8.33;;;23.90;41.60;;;;;;5051607;28;20480;-54
2022/04/12 07:52:10;;;;;;;7.30;7.10;;;24.00;41.40;;;;;;5051368;28;20448;-51
2022/04/12 07:54:37;;;;;;;7.17;6.90;;;24.10;41.90;;;;;;5051678;28;20936;-51
2022/04/12 07:57:04;;;;;;;7.90;7.70;;;24.20;41.20;;;;;;5051645;28;20451;-50
2022/04/12 07:59:32;;;;;;;8.10;7.77;;;24.20;41.10;;;;;;5051446;28;20440;-52
2022/04/12 08:01:59;;;;;;;7.50;7.20;;;24.20;41.00;;;;;;5051629;28;20811;-50
2022/04/12 08:04:26;;;;;;;7.20;7.00;;;24.30;41.00;;;;;;5051734;28;20467;-50
2022/04/12 08:06:53;;;;;;;8.17;7.90;;;24.30;40.90;;;;;;5051324;28;20444;-50
2022/04/12 08:09:19;;;;;;;8.43;7.90;;;24.30;40.90;;;;;;5051290;28;21017;-49
2022/04/12 08:11:46;;;;;;;7.50;7.30;;;24.30;40.80;;;;;;5051397;28;20444;-53
2022/04/12 08:14:13;;;;;;;7.60;7.30;;;24.30;40.80;;;;;;5051494;28;20990;-53
2022/04/12 08:16:41;;;;;;;8.07;7.77;;;24.30;40.80;;;;;;5051364;28;20970;-49
2022/04/12 08:19:07;;;;;;;7.40;7.20;;;24.30;40.80;;;;;;5051305;28;20445;-49
2022/04/12 08:21:36;;;;;;;7.13;6.90;;;24.30;40.80;;;;;;5051281;28;20468;-49
2022/04/12 08:24:04;;;;;;;7.17;6.97;;;24.30;40.80;;;;;;5051395;28;20449;-49
2022/04/12 08:26:31;;;;;;;7.87;7.63;;;24.30;40.80;;;;;;5051007;28;20939;-50
2022/04/12 08:28:57;;;;;;;7.20;7.00;;;24.30;40.80;;;;;;5051167;28;20472;-54
2022/04/12 08:31:24;;;;;;;6.90;6.70;;;24.20;40.80;;;;;;5050993;28;20805;-49
2022/04/12 08:33:53;;;;;;;7.00;6.73;;;24.20;40.80;;;;;;5051256;28;20448;-51
2022/04/12 08:36:22;;;;;;;7.20;7.00;;;24.20;40.90;;;;;;5050839;28;20448;-50
2022/04/12 08:38:50;;;;;;;6.83;6.63;;;24.20;40.90;;;;;;5051293;28;20755;-48
2022/04/12 08:41:18;;;;;;;7.20;6.90;;;24.20;40.90;;;;;;5051094;28;20543;-49
2022/04/12 08:43:45;;;;;;;7.87;7.67;;;24.10;40.90;;;;;;5051258;28;20471;-49
2022/04/12 08:46:12;;;;;;;7.70;7.43;;;24.10;41.00;;;;;;5050975;28;20449;-49
2022/04/12 08:48:40;;;;;;;8.10;7.80;;;24.10;41.00;;;;;;5051065;28;20854;-50
2022/04/12 08:51:08;;;;;;;7.50;7.30;;;24.10;41.00;;;;;;5050869;28;20491;-49
2022/04/12 08:53:35;;;;;;;7.30;7.10;;;24.00;41.00;;;;;;5051096;28;20448;-48
2022/04/12 08:56:03;;;;;;;7.17;6.97;;;24.00;41.00;;;;;;5050830;28;20455;-53
2022/04/12 08:58:29;;;;;;;7.97;7.73;;;24.00;41.10;;;;;;5051000;28;20924;-52
2022/04/12 09:00:56;;;;;;;7.80;7.60;;;23.90;41.10;;;;;;5050714;28;20487;-51
2022/04/12 09:03:23;;;;;;;6.50;6.30;;;23.90;41.10;;;;;;5051040;28;20450;-48
2022/04/12 09:05:52;;;;;;;7.53;7.33;;;23.90;41.10;;;;;;5054201;28;20448;-49
2022/04/12 09:08:28;;;;;;;6.73;6.63;;;23.90;41.20;;;;;;5054749;28;20455;-48
2022/04/12 09:11:01;;;;;;;7.30;6.90;;;23.90;41.30;;;;;;5054909;28;20480;-48
2022/04/12 09:13:28;;;;;;;6.97;6.67;;;23.80;41.20;;;;;;5054860;28;20440;-50
2022/04/12 09:15:55;;;;;;;7.00;6.80;;;23.80;41.30;;;;;;5054720;28;20448;-51
2022/04/12 09:18:35;;;;;;;6.70;6.50;;;23.80;41.30;;;;;;5054535;28;20456;-51
2022/04/12 09:21:13;;;;;;;7.30;7.10;;;23.80;41.40;;;;;;5054379;28;20471;-50
2022/04/12 09:23:51;;;;;;;7.50;7.30;;;23.70;41.40;;;;;;5054448;28;20452;-52
2022/04/12 09:26:24;;;;;;;7.10;6.90;;;23.70;41.40;;;;;;5054308;28;20448;-50
2022/04/12 09:28:52;;;;;;;7.23;7.03;;;23.70;41.40;;;;;;5054456;28;20452;-51
2022/04/12 09:31:19;;;;;;;7.70;7.47;;;23.70;41.50;;;;;;5054132;28;20495;-52
2022/04/12 09:33:47;;;;;;;6.73;6.60;;;23.60;41.50;;;;;;5054477;28;20946;-53
2022/04/12 09:36:15;;;;;;;6.90;6.70;;;23.60;41.50;;;;;;5053941;28;20444;-53
2022/04/12 09:38:43;;;;;;;7.30;7.10;;;23.60;41.50;;;;;;5054133;28;20444;-53
2022/04/12 09:41:14;;;;;;;7.17;7.07;;;23.60;42.10;;;;;;5054105;28;20460;-52
2022/04/12 09:43:54;;;;;;;6.80;6.70;;;23.70;41.60;;;;;;5054140;28;20810;-50
2022/04/12 09:46:22;;;;;;;7.10;6.90;;;23.70;41.40;;;;;;5053831;28;20948;-50
2022/04/12 09:48:50;;;;;;;7.83;7.63;;;23.80;41.40;;;;;;5054015;28;20449;-51
2022/04/12 09:51:18;;;;;;;6.90;6.80;;;23.90;41.30;;;;;;5053780;28;20486;-52
2022/04/12 09:53:46;;;;;;;7.27;7.17;;;23.90;41.20;;;;;;5053814;28;20939;-54
2022/04/12 09:56:18;;;;;;;7.40;7.10;;;24.00;41.10;;;;;;5053909;28;20453;-54
2022/04/12 09:58:47;;;;;;;6.37;6.27;;;24.10;41.00;;;;;;5053945;28;20451;-54
2022/04/12 10:01:15;;;;;;;7.90;7.67;;;24.20;40.90;;;;;;5053963;28;20503;-52
2022/04/12 10:03:45;;;;;;;7.40;7.20;;;24.30;40.90;;;;;;5053878;28;20455;-53
2022/04/12 10:06:13;;;;;;;6.90;6.80;;;24.30;40.80;;;;;;5053484;28;20453;-50
2022/04/12 10:08:41;;;;;;;6.83;6.70;;;24.40;40.80;;;;;;5053639;28;20444;-50
2022/04/12 10:11:08;;;;;;;6.87;6.73;;;24.50;40.80;;;;;;5053406;28;20484;-51
2022/04/12 10:13:38;;;;;;;6.90;6.80;;;24.50;40.80;;;;;;5053566;28;20495;-58
2022/04/12 10:16:07;;;;;;;6.80;6.60;;;24.50;40.60;;;;;;5053301;28;20449;-56
2022/04/12 10:18:34;;;;;;;6.80;6.70;;;24.50;40.60;;;;;;5053342;28;20456;-55
2022/04/12 10:21:01;;;;;;;7.50;7.30;;;24.50;40.60;;;;;;5053355;28;20468;-55
2022/04/12 10:23:30;;;;;;;7.37;7.17;;;24.50;40.60;;;;;;5053218;28;20452;-53
2022/04/12 10:25:59;;;;;;;7.23;7.13;;;24.50;40.60;;;;;;5053139;28;20551;-54
2022/04/12 10:28:27;;;;;;;7.13;7.03;;;24.50;40.60;;;;;;5053307;28;20449;-54
2022/04/12 10:31:04;;;;;;;7.87;7.67;;;24.50;40.70;;;;;;5053170;28;20632;-51
2022/04/12 10:33:33;;;;;;;7.70;7.50;;;24.50;40.60;;;;;;5053189;28;20467;-55
2022/04/12 10:36:02;;;;;;;7.60;7.40;;;24.50;40.60;;;;;;5053006;28;20457;-54
2022/04/12 10:38:40;;;;;;;7.33;7.13;;;24.50;40.70;;;;;;5053364;28;20452;-55
2022/04/12 10:41:25;;;;;;;7.87;7.53;;;24.50;40.70;;;;;;5053348;28;20460;-50
2022/04/12 10:43:56;;;;;;;7.40;7.20;;;24.50;40.70;;;;;;5053135;28;20444;-54
2022/04/12 10:46:27;;;;;;;7.80;7.60;;;24.40;40.70;;;;;;5052777;28;20811;-54
2022/04/12 10:48:55;;;;;;;7.00;6.90;;;24.40;40.70;;;;;;5052913;28;20448;-54
2022/04/12 10:51:37;;;;;;;7.53;7.33;;;24.40;40.80;;;;;;5052648;28;20542;-53
2022/04/12 10:54:05;;;;;;;7.37;7.27;;;24.40;40.80;;;;;;5052877;28;20536;-53
2022/04/12 10:56:31;;;;;;;7.17;7.07;;;24.30;40.70;;;;;;5052633;28;20982;-53
2022/04/12 10:58:58;;;;;;;7.33;7.23;;;24.30;40.80;;;;;;5053005;28;20445;-53
2022/04/12 11:01:31;;;;;;;7.33;7.13;;;24.30;40.80;;;;;;5052315;28;20973;-55
2022/04/12 11:04:00;;;;;;;7.17;7.07;;;24.30;40.90;;;;;;5052753;28;20441;-57
2022/04/12 11:06:28;;;;;;;7.20;7.10;;;24.20;40.80;;;;;;5052197;28;20459;-56
2022/04/12 11:08:56;;;;;;;7.23;7.03;;;24.20;40.90;;;;;;5052496;28;20467;-52
2022/04/12 11:11:36;;;;;;;7.17;7.00;;;24.20;40.90;;;;;;5052175;28;20480;-55
2022/04/12 11:14:22;;;;;;;7.00;6.90;;;24.20;41.00;;;;;;5052522;28;20510;-54
2022/04/12 11:16:52;;;;;;;6.90;6.80;;;24.20;41.00;;;;;;5052250;28;20452;-52
2022/04/12 11:19:21;;;;;;;7.43;7.23;;;24.20;41.10;;;;;;5052633;28;20748;-52
2022/04/12 11:22:01;;;;;;;7.60;7.40;;;24.20;41.10;;;;;;5052178;28;20466;-53
2022/04/12 11:24:28;;;;;;;7.00;6.80;;;24.20;41.10;;;;;;5052197;28;20451;-50
2022/04/12 11:27:06;;;;;;;7.77;7.57;;;24.10;41.10;;;;;;5051474;28;20471;-55
2022/04/12 11:29:33;;;;;;;7.73;7.53;;;24.10;41.20;;;;;;5052094;28;20806;-53
2022/04/12 11:32:01;;;;;;;7.93;7.73;;;24.10;41.20;;;;;;5051949;28;20487;-53
2022/04/12 11:34:31;;;;;;;7.93;7.73;;;24.10;41.20;;;;;;5052009;28;20443;-56
2022/04/12 11:37:00;;;;;;;7.27;7.17;;;24.10;41.30;;;;;;5051811;28;20543;-51
2022/04/12 11:39:28;;;;;;;7.03;6.93;;;24.10;41.30;;;;;;5051769;28;20954;-51
2022/04/12 11:41:58;;;;;;;7.20;7.10;;;24.10;41.30;;;;;;5052042;28;20445;-50
2022/04/12 11:44:25;;;;;;;7.27;7.17;;;24.10;41.30;;;;;;5051960;28;20799;-52
2022/04/12 11:46:57;;;;;;;6.90;6.80;;;24.10;41.40;;;;;;5051586;28;20444;-53
2022/04/12 11:49:29;;;;;;;7.60;7.40;;;24.10;41.40;;;;;;5051757;28;20488;-54
2022/04/12 11:51:58;;;;;;;7.33;7.17;;;24.10;41.40;;;;;;5051704;28;20477;-54
2022/04/12 11:54:27;;;;;;;7.00;6.90;;;24.10;41.40;;;;;;5051916;28;20443;-50
2022/04/12 11:56:59;;;;;;;7.53;7.33;;;24.10;41.40;;;;;;5051534;28;20444;-53
2022/04/12 11:59:26;;;;;;;7.30;7.10;;;24.10;41.30;;;;;;5051492;28;20812;-52
2022/04/12 12:01:53;;;;;;;7.07;6.87;;;24.20;41.30;;;;;;5094344;22;20487;-49
2022/04/12 12:04:20;;;;;;;7.57;7.37;;;24.30;41.20;;;;;;5071615;28;20501;-52
2022/04/12 12:06:59;;;;;;;7.10;6.90;;;24.40;41.10;;;;;;5071421;28;20447;-53
2022/04/12 12:09:27;;;;;;;6.90;6.80;;;24.50;41.00;;;;;;5071597;28;20505;-52
2022/04/12 12:11:57;;;;;;;7.23;7.03;;;24.60;40.90;;;;;;5071386;28;20483;-52
2022/04/12 12:14:23;;;;;;;7.90;7.80;;;24.70;40.80;;;;;;5071693;28;20439;-51
2022/04/12 12:17:04;;;;;;;7.10;7.00;;;24.80;40.60;;;;;;5071458;28;20443;-55
2022/04/12 12:19:33;;;;;;;7.10;7.00;;;24.90;40.60;;;;;;5071611;28;20817;-51
2022/04/12 12:22:02;;;;;;;7.10;6.90;;;24.90;40.50;;;;;;5071344;28;20558;-54
2022/04/12 12:24:29;;;;;;;7.60;7.50;;;25.00;40.50;;;;;;5071570;28;20481;-53
2022/04/12 12:26:57;;;;;;;6.73;6.63;;;24.90;40.50;;;;;;5071229;28;20475;-51
2022/04/12 12:29:26;;;;;;;7.20;7.00;;;24.90;40.40;;;;;;5071670;28;20804;-51
2022/04/12 12:31:56;;;;;;;6.83;6.70;;;25.00;40.50;;;;;;5071167;28;21013;-51
2022/04/12 12:34:30;;;;;;;7.90;7.70;;;25.00;40.40;;;;;;5071280;28;20513;-53
2022/04/12 12:36:57;;;;;;;7.33;7.13;;;25.00;40.40;;;;;;5071059;28;20452;-52
2022/04/12 12:39:28;;;;;;;6.87;6.77;;;25.10;40.40;;;;;;5074224;28;20454;-50
2022/04/12 12:41:58;;;;;;;7.17;7.03;;;25.10;40.30;;;;;;5075366;28;20530;-51
2022/04/12 12:44:26;;;;;;;6.90;6.80;;;25.10;40.30;;;;;;5075293;28;20487;-51
2022/04/12 12:46:59;;;;;;;7.27;7.13;;;25.10;40.30;;;;;;5075030;28;20909;-51
2022/04/12 12:49:35;;;;;;;7.60;7.50;;;25.10;40.40;;;;;;5075281;28;20472;-51
2022/04/12 12:52:03;;;;;;;6.93;6.83;;;25.10;40.50;;;;;;5074985;28;20854;-51
2022/04/12 12:54:31;;;;;;;6.90;6.77;;;25.10;40.50;;;;;;5075407;28;20443;-50